Time;durP1;ratioP1;P1;durP2;ratioP2;P2;SDS_P1;SDS_P2;PMS_P1;PMS_P2;Temp;Humidity;BMP_temperature;BMP_pressure;BME280_temperature;BME280_humidity;BME280_pressure;Samples;Min_cycle;Max_cycle;Signal;HPM_P1;HPM_P2
2024/01/17 00:00:32;;;;;;;17.27;15.25;;;-4.00;99.90;;;;;;3116222;28;20053;-74
2024/01/17 00:02:03;;;;;;;23.17;19.40;;;-4.80;99.90;;;;;;3124400;28;20025;-73
2024/01/17 00:03:34;;;;;;;29.30;19.38;;;-4.80;99.90;;;;;;3140917;28;20017;-72
2024/01/17 00:05:06;;;;;;;17.48;15.77;;;-4.90;99.90;;;;;;3115824;28;20026;-74
2024/01/17 00:06:37;;;;;;;25.25;16.98;;;-4.80;99.90;;;;;;3116021;28;20197;-72
2024/01/17 00:08:09;;;;;;;19.40;16.67;;;-4.80;99.90;;;;;;3125515;28;20022;-72
2024/01/17 00:09:40;;;;;;;22.17;18.00;;;-4.80;99.90;;;;;;3128459;28;20053;-73
2024/01/17 00:11:10;;;;;;;27.40;17.17;;;-4.90;99.90;;;;;;3116200;28;20022;-73
2024/01/17 00:12:41;;;;;;;25.15;19.60;;;-4.90;99.90;;;;;;3118470;28;20041;-73
2024/01/17 00:14:12;;;;;;;23.83;18.15;;;-4.40;99.90;;;;;;3143354;28;20044;-72
2024/01/17 00:15:43;;;;;;;24.02;17.95;;;-4.90;99.90;;;;;;3122737;28;20029;-72
2024/01/17 00:17:14;;;;;;;20.88;16.58;;;-4.90;99.90;;;;;;3118913;28;20026;-72
2024/01/17 00:18:45;;;;;;;18.65;16.00;;;-3.70;99.90;;;;;;3130797;28;20206;-74
2024/01/17 00:20:16;;;;;;;26.08;18.58;;;-4.90;99.90;;;;;;3118861;28;20025;-72
2024/01/17 00:21:47;;;;;;;25.10;16.42;;;-4.90;99.90;;;;;;3114024;28;20026;-77
2024/01/17 00:23:18;;;;;;;19.52;15.30;;;-4.90;99.90;;;;;;3126362;28;20088;-74
2024/01/17 00:24:51;;;;;;;16.92;14.52;;;-5.00;99.90;;;;;;3114624;28;20037;-73
2024/01/17 00:26:21;;;;;;;19.38;17.08;;;-5.00;99.90;;;;;;3127626;28;20052;-73
2024/01/17 00:27:52;;;;;;;17.15;15.43;;;-5.00;99.90;;;;;;3130481;28;20500;-72
2024/01/17 00:29:23;;;;;;;19.42;15.38;;;-5.00;99.90;;;;;;3138239;28;20047;-72
2024/01/17 00:30:54;;;;;;;16.02;13.90;;;-5.00;99.90;;;;;;3130977;28;20307;-72
2024/01/17 00:32:25;;;;;;;20.33;17.02;;;-5.00;99.90;;;;;;3120118;28;20048;-73
2024/01/17 00:33:57;;;;;;;27.42;18.75;;;-5.10;99.90;;;;;;3114604;28;20038;-72
2024/01/17 00:35:27;;;;;;;36.47;23.27;;;-5.10;99.90;;;;;;3118781;28;20227;-73
2024/01/17 00:36:58;;;;;;;31.20;22.17;;;-5.10;99.90;;;;;;3106337;28;20064;-72
2024/01/17 00:38:31;;;;;;;33.25;23.02;;;-5.20;99.90;;;;;;3125862;28;20026;-72
2024/01/17 00:40:01;;;;;;;31.90;21.25;;;-5.20;99.90;;;;;;3131270;28;20039;-73
2024/01/17 00:41:32;;;;;;;43.20;26.95;;;-5.20;99.90;;;;;;3142994;28;20048;-73
2024/01/17 00:43:03;;;;;;;30.23;23.67;;;-5.30;99.90;;;;;;3124895;28;20021;-72
2024/01/17 00:44:38;;;;;;;28.20;22.10;;;-5.30;99.90;;;;;;3122546;28;20025;-72
2024/01/17 00:46:10;;;;;;;32.72;23.27;;;-5.30;99.90;;;;;;3119255;28;20026;-73
2024/01/17 00:47:40;;;;;;;25.45;20.77;;;-5.30;99.90;;;;;;3118197;28;20018;-75
2024/01/17 00:49:11;;;;;;;27.42;19.90;;;-5.30;99.90;;;;;;3118788;28;20361;-73
2024/01/17 00:50:42;;;;;;;25.60;22.70;;;-5.40;99.90;;;;;;3119111;28;20018;-72
2024/01/17 00:52:13;;;;;;;33.35;22.75;;;-5.40;99.90;;;;;;3121323;28;20021;-73
2024/01/17 00:53:44;;;;;;;23.08;20.88;;;-5.40;99.90;;;;;;3114065;28;20207;-72
2024/01/17 00:55:15;;;;;;;26.85;20.10;;;;;;;;;;3134705;28;20088;-72
2024/01/17 00:56:45;;;;;;;24.00;19.02;;;-5.40;99.90;;;;;;3134336;28;20021;-73
2024/01/17 00:58:18;;;;;;;25.15;18.48;;;-5.40;99.90;;;;;;3130793;28;20207;-72
2024/01/17 00:59:48;;;;;;;20.42;17.40;;;-5.40;99.90;;;;;;3130694;28;20122;-72
2024/01/17 01:01:19;;;;;;;23.40;19.27;;;-5.40;99.90;;;;;;3130806;28;20029;-72
2024/01/17 01:02:54;;;;;;;24.00;18.30;;;-5.40;99.90;;;;;;3141375;28;20028;-72
2024/01/17 01:04:24;;;;;;;30.65;21.48;;;-5.30;99.90;;;;;;3117683;28;20377;-74
2024/01/17 01:05:55;;;;;;;51.78;30.23;;;-5.40;99.90;;;;;;3122396;28;20083;-72
2024/01/17 01:07:26;;;;;;;39.95;27.20;;;-5.40;99.90;;;;;;3135128;28;20025;-72
2024/01/17 01:08:57;;;;;;;29.52;21.90;;;-5.40;99.90;;;;;;3142442;28;20044;-73
2024/01/17 01:10:27;;;;;;;42.35;23.42;;;-5.40;99.90;;;;;;3118171;28;20022;-74
2024/01/17 01:11:58;;;;;;;25.88;19.33;;;-5.40;99.90;;;;;;3123194;28;20067;-72
2024/01/17 01:13:30;;;;;;;24.50;18.30;;;-5.40;99.90;;;;;;3117578;28;20021;-72
2024/01/17 01:15:01;;;;;;;22.75;19.98;;;-5.40;99.90;;;;;;3113753;28;20021;-72
2024/01/17 01:16:31;;;;;;;20.63;18.52;;;-5.40;99.90;;;;;;3126388;28;20021;-73
2024/01/17 01:18:02;;;;;;;21.83;19.15;;;-5.40;99.90;;;;;;3125882;28;20026;-73
2024/01/17 01:19:33;;;;;;;29.63;20.65;;;-5.40;99.90;;;;;;3125980;28;20040;-72
2024/01/17 01:21:04;;;;;;;25.50;19.75;;;-5.40;99.90;;;;;;3137780;28;20032;-72
2024/01/17 01:22:36;;;;;;;21.83;18.42;;;-5.40;99.90;;;;;;3122016;28;20359;-72
2024/01/17 01:24:06;;;;;;;18.40;16.67;;;-5.40;99.90;;;;;;3126712;28;20131;-72
2024/01/17 01:25:37;;;;;;;36.97;20.88;;;-5.40;99.90;;;;;;3129749;28;20033;-72
2024/01/17 01:27:08;;;;;;;25.63;19.98;;;-5.40;99.90;;;;;;3126227;28;20211;-73
2024/01/17 01:28:39;;;;;;;34.90;20.80;;;-5.40;99.90;;;;;;3125356;28;20049;-73
2024/01/17 01:30:10;;;;;;;27.17;21.98;;;-5.40;99.90;;;;;;3130009;28;20239;-72
2024/01/17 01:31:41;;;;;;;25.67;21.67;;;-5.50;99.90;;;;;;3125725;28;20105;-72
2024/01/17 01:33:11;;;;;;;23.33;20.55;;;-5.30;99.90;;;;;;3124646;28;20033;-74
2024/01/17 01:34:42;;;;;;;27.63;20.17;;;-5.30;99.90;;;;;;3130093;28;20074;-72
2024/01/17 01:36:13;;;;;;;25.63;18.65;;;-5.30;99.90;;;;;;3130727;28;20315;-73
2024/01/17 01:37:44;;;;;;;30.63;22.98;;;-5.20;99.90;;;;;;3142030;28;20027;-72
2024/01/17 01:39:15;;;;;;;34.28;27.40;;;-5.20;99.90;;;;;;3117872;28;20211;-72
2024/01/17 01:40:45;;;;;;;25.10;22.60;;;-5.20;99.90;;;;;;3126306;28;20210;-73
2024/01/17 01:42:16;;;;;;;24.02;21.02;;;-5.20;99.90;;;;;;3141369;28;20036;-72
2024/01/17 01:43:47;;;;;;;30.60;19.50;;;-5.20;99.90;;;;;;3129907;28;20021;-73
2024/01/17 01:45:19;;;;;;;31.48;18.50;;;-5.40;99.90;;;;;;3125738;28;20207;-73
2024/01/17 01:46:50;;;;;;;18.30;16.50;;;-5.10;99.90;;;;;;3150526;28;20083;-72
2024/01/17 01:48:21;;;;;;;18.83;17.00;;;-5.10;99.90;;;;;;3138610;28;20017;-73
2024/01/17 01:49:52;;;;;;;20.33;17.38;;;-5.10;99.90;;;;;;3129615;28;20375;-73
2024/01/17 01:51:24;;;;;;;16.95;15.38;;;-5.20;99.90;;;;;;3129508;28;20337;-73
2024/01/17 01:52:55;;;;;;;20.15;15.77;;;-5.20;99.90;;;;;;3119719;28;20030;-72
2024/01/17 01:54:26;;;;;;;21.70;16.80;;;-4.00;99.90;;;;;;3118111;28;20318;-72
2024/01/17 01:55:58;;;;;;;21.92;17.00;;;-5.10;99.90;;;;;;3104973;28;20038;-72
2024/01/17 01:57:30;;;;;;;18.05;15.60;;;-5.10;99.90;;;;;;3114033;28;20022;-73
2024/01/17 01:59:02;;;;;;;22.67;17.85;;;-5.10;99.90;;;;;;3141885;28;20079;-74
2024/01/17 02:00:34;;;;;;;23.17;20.10;;;-5.10;99.90;;;;;;3109832;28;20030;-74
2024/01/17 02:02:05;;;;;;;22.02;19.85;;;-5.10;99.90;;;;;;3122338;28;20357;-72
2024/01/17 02:03:40;;;;;;;34.70;20.38;;;-5.10;99.90;;;;;;3129584;28;20021;-72
2024/01/17 02:05:11;;;;;;;22.63;18.63;;;-5.10;99.90;;;;;;3132454;28;20095;-72
2024/01/17 02:06:44;;;;;;;18.63;16.23;;;-5.10;99.90;;;;;;3142217;28;20029;-72
2024/01/17 02:08:15;;;;;;;23.17;17.48;;;-5.10;99.90;;;;;;3141833;28;20063;-71
2024/01/17 02:09:46;;;;;;;21.60;16.88;;;-5.10;99.90;;;;;;3141662;28;20041;-72
2024/01/17 02:11:18;;;;;;;17.80;15.93;;;-5.10;99.90;;;;;;3142595;28;20036;-73
2024/01/17 02:12:49;;;;;;;16.92;15.32;;;-5.10;99.90;;;;;;3132639;28;20064;-73
2024/01/17 02:14:20;;;;;;;18.77;16.77;;;-5.10;99.90;;;;;;3130213;28;20053;-73
2024/01/17 02:15:51;;;;;;;20.65;16.58;;;-5.10;99.90;;;;;;3141824;28;20103;-72
2024/01/17 02:17:22;;;;;;;19.70;17.77;;;-5.10;99.90;;;;;;3121015;28;20040;-72
2024/01/17 02:18:54;;;;;;;24.98;22.25;;;-5.20;99.90;;;;;;3113118;28;20243;-73
2024/01/17 02:20:24;;;;;;;21.73;19.30;;;-5.20;99.90;;;;;;3137902;28;20147;-72
2024/01/17 02:21:55;;;;;;;25.17;17.77;;;-5.20;99.90;;;;;;3120833;28;20192;-73
2024/01/17 02:23:28;;;;;;;19.65;17.52;;;-5.20;99.90;;;;;;3113067;28;20048;-72
2024/01/17 02:25:03;;;;;;;23.52;17.20;;;-5.20;99.90;;;;;;3121747;28;20052;-73
2024/01/17 02:26:34;;;;;;;18.45;16.40;;;-5.10;99.90;;;;;;3129291;28;20266;-73
2024/01/17 02:28:05;;;;;;;20.30;17.65;;;-5.10;99.90;;;;;;3129785;28;20025;-72
2024/01/17 02:29:35;;;;;;;20.90;16.40;;;-5.20;99.90;;;;;;3130218;28;20362;-73
2024/01/17 02:31:06;;;;;;;25.67;16.20;;;-5.10;99.90;;;;;;3129026;28;20028;-72
2024/01/17 02:32:37;;;;;;;23.35;17.02;;;-5.10;99.90;;;;;;3120199;28;20081;-72
2024/01/17 02:34:09;;;;;;;17.13;15.57;;;-5.20;99.90;;;;;;3125206;28;20056;-72
2024/01/17 02:35:41;;;;;;;28.50;16.55;;;-5.20;99.90;;;;;;3141421;28;20025;-72
2024/01/17 02:37:14;;;;;;;20.42;14.65;;;-5.30;99.90;;;;;;3133963;28;20075;-72
2024/01/17 02:38:44;;;;;;;17.13;15.45;;;-5.30;99.90;;;;;;3129919;28;20060;-72
2024/01/17 02:40:15;;;;;;;17.10;15.43;;;-5.30;99.90;;;;;;3129618;28;20337;-73
2024/01/17 02:41:46;;;;;;;21.92;14.38;;;-5.40;99.90;;;;;;3116915;28;20028;-72
2024/01/17 02:43:17;;;;;;;14.30;13.07;;;-5.20;99.90;;;;;;3145199;28;20115;-72
2024/01/17 02:44:48;;;;;;;15.57;13.60;;;-5.40;99.90;;;;;;3121152;28;20076;-72
2024/01/17 02:46:19;;;;;;;16.52;14.60;;;-5.40;99.90;;;;;;3120837;28;20026;-73
2024/01/17 02:47:50;;;;;;;16.35;14.93;;;-5.50;99.90;;;;;;3129617;28;20329;-72
2024/01/17 02:49:21;;;;;;;15.30;13.68;;;-5.50;99.90;;;;;;3141239;28;20036;-72
2024/01/17 02:50:51;;;;;;;18.02;13.35;;;-5.50;99.90;;;;;;3129339;28;20270;-73
2024/01/17 02:52:22;;;;;;;14.77;13.15;;;-5.50;99.90;;;;;;3128505;28;20040;-73
2024/01/17 02:53:53;;;;;;;17.63;13.65;;;-5.50;99.90;;;;;;3116852;28;20211;-73
2024/01/17 02:55:24;;;;;;;19.83;14.68;;;-4.90;99.90;;;;;;3120872;28;20017;-72
2024/01/17 02:56:55;;;;;;;17.95;14.75;;;-5.60;99.90;;;;;;3125278;28;20088;-72
2024/01/17 02:58:26;;;;;;;24.70;13.57;;;-5.60;99.90;;;;;;3129322;28;20021;-72
2024/01/17 02:59:57;;;;;;;19.23;14.88;;;-5.60;99.90;;;;;;3128831;28;20021;-72
2024/01/17 03:01:28;;;;;;;19.40;14.73;;;-5.60;99.90;;;;;;3140953;28;20013;-73
2024/01/17 03:02:59;;;;;;;15.32;13.15;;;-5.70;99.90;;;;;;3132309;28;20025;-71
2024/01/17 03:04:29;;;;;;;18.17;13.85;;;-5.70;99.90;;;;;;3129486;28;20072;-73
2024/01/17 03:06:00;;;;;;;17.20;14.45;;;-5.70;99.90;;;;;;3129041;28;20256;-72
2024/01/17 03:07:32;;;;;;;15.75;14.35;;;-5.70;99.90;;;;;;3116655;28;20093;-72
2024/01/17 03:09:03;;;;;;;16.60;13.35;;;-5.70;99.90;;;;;;3124786;28;20270;-72
2024/01/17 03:10:35;;;;;;;16.83;12.60;;;-5.70;99.90;;;;;;3125024;28;20229;-72
2024/01/17 03:12:06;;;;;;;16.80;13.70;;;-5.70;99.90;;;;;;3148424;28;20029;-72
2024/01/17 03:13:37;;;;;;;17.48;15.73;;;-5.60;99.90;;;;;;3120453;28;20030;-72
2024/01/17 03:15:10;;;;;;;17.17;15.32;;;-5.60;99.90;;;;;;3125266;28;20030;-73
2024/01/17 03:16:42;;;;;;;19.00;15.38;;;-5.60;99.90;;;;;;3141098;28;20024;-72
2024/01/17 03:18:13;;;;;;;16.88;14.63;;;-5.60;99.90;;;;;;3133210;28;20032;-73
2024/01/17 03:19:46;;;;;;;15.75;14.05;;;-5.60;99.90;;;;;;3129786;28;20084;-72
2024/01/17 03:21:16;;;;;;;21.15;14.50;;;-5.50;99.90;;;;;;3140874;28;20024;-72
2024/01/17 03:22:47;;;;;;;18.02;14.77;;;-5.50;99.90;;;;;;3131460;28;20315;-72
2024/01/17 03:24:18;;;;;;;14.98;13.40;;;-5.40;99.90;;;;;;3129087;28;20024;-72
2024/01/17 03:25:49;;;;;;;18.58;14.60;;;-5.50;99.90;;;;;;3129336;28;20032;-72
2024/01/17 03:27:20;;;;;;;16.52;14.77;;;-5.50;99.90;;;;;;3128768;28;20140;-72
2024/01/17 03:28:51;;;;;;;18.30;14.35;;;-5.40;99.90;;;;;;3129080;28;20037;-72
2024/01/17 03:30:22;;;;;;;15.13;13.57;;;-5.50;99.90;;;;;;3116757;28;20334;-74
2024/01/17 03:31:52;;;;;;;19.58;13.90;;;-5.50;99.90;;;;;;3127812;28;20293;-73
2024/01/17 03:33:23;;;;;;;17.98;16.13;;;-5.50;99.90;;;;;;3138376;28;20040;-72
2024/01/17 03:34:55;;;;;;;14.55;13.23;;;-5.50;99.90;;;;;;3141073;28;20021;-74
2024/01/17 03:36:26;;;;;;;15.88;14.35;;;-5.50;99.90;;;;;;3116496;28;20320;-72
2024/01/17 03:37:57;;;;;;;14.10;12.82;;;-5.50;99.90;;;;;;3133658;28;20032;-73
2024/01/17 03:39:30;;;;;;;16.30;14.70;;;-5.50;99.90;;;;;;3141135;28;20030;-72
2024/01/17 03:41:01;;;;;;;15.68;13.95;;;-5.50;99.90;;;;;;3147774;28;20027;-72
2024/01/17 03:42:32;;;;;;;13.75;12.25;;;-5.50;99.90;;;;;;3114935;28;20157;-72
2024/01/17 03:44:03;;;;;;;16.63;15.02;;;-5.60;99.90;;;;;;3124788;28;20116;-72
2024/01/17 03:45:33;;;;;;;15.23;13.63;;;-5.60;99.90;;;;;;3141663;28;20032;-73
2024/01/17 03:47:04;;;;;;;13.38;12.05;;;-5.60;99.90;;;;;;3135390;28;20021;-72
2024/01/17 03:48:35;;;;;;;14.40;12.75;;;-5.70;99.90;;;;;;3139561;28;20322;-72
2024/01/17 03:50:06;;;;;;;14.05;12.63;;;-5.70;99.90;;;;;;3123056;28;20041;-72
2024/01/17 03:51:37;;;;;;;15.43;14.05;;;-5.70;99.90;;;;;;3147935;28;20035;-72
2024/01/17 03:53:07;;;;;;;13.73;12.32;;;-5.60;99.90;;;;;;3133929;28;20307;-73
2024/01/17 03:54:38;;;;;;;17.98;12.80;;;-5.70;99.90;;;;;;3131415;28;20091;-73
2024/01/17 03:56:09;;;;;;;12.88;11.63;;;-6.30;99.90;;;;;;3143448;28;20032;-73
2024/01/17 03:57:39;;;;;;;12.23;11.02;;;-5.70;99.90;;;;;;3135627;28;20029;-73
2024/01/17 03:59:10;;;;;;;15.93;12.43;;;-5.70;99.90;;;;;;3143242;28;20025;-72
2024/01/17 04:00:41;;;;;;;16.02;13.50;;;-5.70;99.90;;;;;;3122971;28;20038;-73
2024/01/17 04:02:12;;;;;;;15.60;13.40;;;-5.70;99.90;;;;;;3125376;28;20032;-74
2024/01/17 04:03:44;;;;;;;17.25;14.70;;;-5.60;99.90;;;;;;3114789;28;20018;-73
2024/01/17 04:05:19;;;;;;;13.75;12.30;;;-5.50;99.90;;;;;;3126588;28;20017;-72
2024/01/17 04:06:50;;;;;;;14.60;13.13;;;-5.60;99.90;;;;;;3127344;28;20021;-71
2024/01/17 04:08:20;;;;;;;19.90;12.82;;;-5.50;99.90;;;;;;3131522;28;20089;-72
2024/01/17 04:09:51;;;;;;;13.45;12.25;;;-5.50;99.90;;;;;;3143372;28;20060;-73
2024/01/17 04:11:22;;;;;;;16.13;14.32;;;-5.00;99.90;;;;;;3134680;28;20017;-73
2024/01/17 04:12:52;;;;;;;15.98;14.20;;;-5.50;99.90;;;;;;3140000;28;20389;-73
2024/01/17 04:14:23;;;;;;;19.70;13.07;;;-5.50;99.90;;;;;;3139061;28;20021;-72
2024/01/17 04:15:54;;;;;;;13.32;12.02;;;-5.50;99.90;;;;;;3131132;28;20032;-72
2024/01/17 04:17:25;;;;;;;14.38;12.90;;;-5.40;99.90;;;;;;3139079;28;20031;-72
2024/01/17 04:18:55;;;;;;;15.57;14.00;;;-5.40;99.90;;;;;;3151534;28;20016;-72
2024/01/17 04:20:26;;;;;;;13.38;11.05;;;-5.40;99.90;;;;;;3131147;28;20079;-71
2024/01/17 04:21:57;;;;;;;14.07;12.48;;;-5.40;99.90;;;;;;3137334;28;20409;-72
2024/01/17 04:23:28;;;;;;;13.95;12.65;;;-5.40;99.90;;;;;;3142994;28;20029;-72
2024/01/17 04:25:00;;;;;;;15.02;13.52;;;-5.40;99.90;;;;;;3131297;28;20063;-73
2024/01/17 04:26:31;;;;;;;13.63;12.38;;;-5.40;99.90;;;;;;3131339;28;20026;-72
2024/01/17 04:28:06;;;;;;;13.90;12.60;;;-5.40;99.90;;;;;;3131368;28;20053;-72
2024/01/17 04:29:37;;;;;;;17.33;13.32;;;-5.40;99.90;;;;;;3131389;28;20235;-73
2024/01/17 04:31:07;;;;;;;16.58;14.95;;;-5.40;99.90;;;;;;3143289;28;20091;-72
2024/01/17 04:32:38;;;;;;;15.25;12.27;;;-5.40;99.90;;;;;;3141320;28;20044;-73
2024/01/17 04:34:10;;;;;;;14.00;12.63;;;-5.40;99.90;;;;;;3136763;28;20045;-72
2024/01/17 04:35:40;;;;;;;16.23;13.20;;;-5.40;99.90;;;;;;3143553;28;20100;-72
2024/01/17 04:37:11;;;;;;;14.40;13.02;;;-5.30;99.90;;;;;;3144042;28;20036;-72
2024/01/17 04:38:43;;;;;;;16.60;14.88;;;-5.40;99.90;;;;;;3143400;28;20325;-74
2024/01/17 04:40:15;;;;;;;16.58;14.82;;;-5.30;99.90;;;;;;3144103;28;20059;-72
2024/01/17 04:41:46;;;;;;;18.77;16.83;;;-5.30;99.90;;;;;;3144059;28;20084;-72
2024/01/17 04:43:16;;;;;;;17.80;15.95;;;-5.30;99.90;;;;;;3134386;28;20047;-73
2024/01/17 04:44:48;;;;;;;21.27;18.08;;;-5.30;99.90;;;;;;3135431;28;20018;-73
2024/01/17 04:46:19;;;;;;;21.55;17.05;;;-5.30;99.90;;;;;;3117835;28;20042;-72
2024/01/17 04:47:49;;;;;;;17.88;16.05;;;-5.30;99.90;;;;;;3126691;28;20032;-72
2024/01/17 04:49:20;;;;;;;17.42;15.30;;;-5.30;99.90;;;;;;3150880;28;20028;-72
2024/01/17 04:50:52;;;;;;;17.63;15.80;;;-5.30;99.90;;;;;;3139604;28;20105;-72
2024/01/17 04:52:23;;;;;;;21.73;17.10;;;-5.30;99.90;;;;;;3130052;28;20021;-72
2024/01/17 04:53:54;;;;;;;23.98;17.25;;;-4.60;99.90;;;;;;3131503;28;20226;-72
2024/01/17 04:55:25;;;;;;;18.08;16.42;;;-4.30;99.90;;;;;;3143565;28;20024;-73
2024/01/17 04:56:59;;;;;;;17.98;16.17;;;-5.40;99.90;;;;;;3134941;28;20294;-73
2024/01/17 04:58:30;;;;;;;16.65;15.05;;;-5.40;99.90;;;;;;3131083;28;20055;-73
2024/01/17 05:00:01;;;;;;;17.40;14.15;;;-5.40;99.90;;;;;;3130498;28;20017;-72
2024/01/17 05:01:33;;;;;;;17.38;15.38;;;-5.50;99.90;;;;;;3145518;28;20028;-73
2024/01/17 05:03:04;;;;;;;19.95;14.65;;;-5.50;99.90;;;;;;3130924;28;20070;-73
2024/01/17 05:04:34;;;;;;;17.80;15.95;;;-5.50;99.90;;;;;;3113868;28;20262;-73
2024/01/17 05:06:05;;;;;;;17.08;14.95;;;-5.60;99.90;;;;;;3133813;28;20062;-73
2024/01/17 05:07:36;;;;;;;18.23;14.63;;;-5.60;99.90;;;;;;3135043;28;20029;-73
2024/01/17 05:09:08;;;;;;;14.68;13.32;;;-5.60;99.90;;;;;;3130127;28;20052;-71
2024/01/17 05:10:44;;;;;;;18.52;16.08;;;-5.60;99.90;;;;;;3131197;28;20029;-74
2024/01/17 05:12:15;;;;;;;17.50;14.93;;;-5.60;99.90;;;;;;3141394;28;20123;-72
2024/01/17 05:13:46;;;;;;;14.85;13.07;;;-5.60;99.90;;;;;;3126419;28;20026;-72
2024/01/17 05:15:17;;;;;;;19.90;15.70;;;-5.60;99.90;;;;;;3142521;28;20021;-74
2024/01/17 05:16:48;;;;;;;20.63;13.80;;;-5.50;99.90;;;;;;3097907;28;20058;-73
2024/01/17 05:18:19;;;;;;;19.15;17.25;;;-5.50;99.90;;;;;;3130385;28;20032;-72
2024/01/17 05:19:49;;;;;;;15.52;14.13;;;-5.50;99.90;;;;;;3126723;28;20492;-72
2024/01/17 05:21:20;;;;;;;20.25;14.55;;;-5.50;99.90;;;;;;3118839;28;20022;-74
2024/01/17 05:22:51;;;;;;;14.55;13.13;;;-4.90;99.90;;;;;;3129008;28;20126;-72
2024/01/17 05:24:22;;;;;;;20.90;14.65;;;-5.40;99.90;;;;;;3117663;28;20049;-72
2024/01/17 05:25:53;;;;;;;15.02;13.52;;;-5.30;99.90;;;;;;3146292;28;20035;-71
2024/01/17 05:27:24;;;;;;;15.27;13.95;;;-5.30;99.90;;;;;;3134376;28;20021;-72
2024/01/17 05:28:54;;;;;;;16.48;14.88;;;-5.30;99.90;;;;;;3130147;28;20049;-73
2024/01/17 05:30:25;;;;;;;16.48;14.82;;;-5.20;99.90;;;;;;3155051;28;20032;-72
2024/01/17 05:31:56;;;;;;;17.85;14.57;;;-5.00;99.90;;;;;;3137549;28;20305;-73
2024/01/17 05:33:27;;;;;;;17.10;15.48;;;-5.10;99.90;;;;;;3117470;28;20026;-72
2024/01/17 05:34:57;;;;;;;17.83;16.08;;;-5.10;99.90;;;;;;3125965;28;20326;-72
2024/01/17 05:36:29;;;;;;;18.17;13.38;;;-5.00;99.90;;;;;;3130432;28;20025;-74
2024/01/17 05:38:00;;;;;;;15.95;13.98;;;-5.00;99.90;;;;;;3130164;28;20032;-73
2024/01/17 05:39:31;;;;;;;16.58;15.02;;;-5.00;99.90;;;;;;3130491;28;20033;-74
2024/01/17 05:41:03;;;;;;;21.08;15.40;;;-5.00;99.90;;;;;;3117390;28;20320;-73
2024/01/17 05:42:34;;;;;;;15.77;14.38;;;-4.90;99.90;;;;;;3125012;28;20049;-74
2024/01/17 05:44:05;;;;;;;19.42;15.20;;;-4.90;99.90;;;;;;3125466;28;20029;-73
2024/01/17 05:45:36;;;;;;;13.45;11.75;;;-4.90;99.90;;;;;;3117629;28;20340;-75
2024/01/17 05:47:07;;;;;;;14.07;12.77;;;-4.90;99.90;;;;;;3125640;28;20033;-75
2024/01/17 05:48:39;;;;;;;13.68;12.02;;;-4.80;99.90;;;;;;3122337;28;20089;-76
2024/01/17 05:50:11;;;;;;;16.58;14.82;;;-4.80;99.90;;;;;;3129752;28;20072;-74
2024/01/17 05:51:42;;;;;;;14.60;13.32;;;-4.80;99.90;;;;;;3141906;28;20218;-73
2024/01/17 05:53:13;;;;;;;19.60;14.65;;;-4.80;99.90;;;;;;3125415;28;20030;-74
2024/01/17 05:54:43;;;;;;;18.45;14.45;;;-4.70;99.90;;;;;;3128154;28;20083;-74
2024/01/17 05:56:14;;;;;;;15.38;13.48;;;-4.70;99.90;;;;;;3124328;28;20077;-74
2024/01/17 05:57:45;;;;;;;17.27;13.45;;;-4.70;99.90;;;;;;3137504;28;20273;-74
2024/01/17 05:59:16;;;;;;;14.63;12.73;;;-4.70;99.90;;;;;;3132961;28;20108;-73
2024/01/17 06:00:47;;;;;;;15.00;13.55;;;-4.70;99.90;;;;;;3142134;28;20035;-73
2024/01/17 06:02:17;;;;;;;14.32;13.07;;;-4.70;99.90;;;;;;3116747;28;20029;-74
2024/01/17 06:03:48;;;;;;;15.30;13.70;;;-4.60;99.90;;;;;;3121748;28;20052;-74
2024/01/17 06:05:19;;;;;;;14.98;13.55;;;-4.60;99.90;;;;;;3121677;28;20029;-74
2024/01/17 06:06:50;;;;;;;15.50;14.10;;;-4.60;99.90;;;;;;3137701;28;20032;-74
2024/01/17 06:08:21;;;;;;;14.90;13.60;;;-4.60;99.90;;;;;;3137141;28;20017;-74
2024/01/17 06:09:52;;;;;;;15.63;11.60;;;-4.00;99.90;;;;;;3129441;28;20068;-76
2024/01/17 06:11:22;;;;;;;15.70;13.70;;;-3.50;99.90;;;;;;3129547;28;20184;-74
2024/01/17 06:12:54;;;;;;;15.13;13.50;;;-4.50;99.90;;;;;;3122798;28;20033;-75
2024/01/17 06:14:25;;;;;;;13.52;12.30;;;-4.50;99.90;;;;;;3129898;28;20079;-74
2024/01/17 06:15:56;;;;;;;16.90;14.30;;;-4.50;99.90;;;;;;3117020;28;20025;-74
2024/01/17 06:17:27;;;;;;;11.40;10.15;;;-4.50;99.90;;;;;;3137676;28;20141;-74
2024/01/17 06:18:59;;;;;;;12.65;11.43;;;-4.50;99.90;;;;;;3116940;28;20029;-73
2024/01/17 06:20:30;;;;;;;15.65;14.00;;;-4.50;99.90;;;;;;3125344;28;20033;-74
2024/01/17 06:22:01;;;;;;;19.75;12.80;;;-4.50;99.90;;;;;;3135861;28;20025;-74
2024/01/17 06:23:32;;;;;;;16.52;12.85;;;-4.50;99.90;;;;;;3126521;28;20071;-76
2024/01/17 06:25:05;;;;;;;14.85;13.10;;;-4.20;99.90;;;;;;3130514;28;20017;-74
2024/01/17 06:26:36;;;;;;;16.23;12.48;;;-4.40;99.90;;;;;;3129973;28;20101;-73
2024/01/17 06:28:07;;;;;;;15.52;14.25;;;-4.40;99.90;;;;;;3147514;28;20326;-74
2024/01/17 06:29:42;;;;;;;14.07;12.73;;;-4.40;99.90;;;;;;3136221;28;20076;-74
2024/01/17 06:31:25;;;;;;;21.20;15.23;;;-4.40;99.90;;;;;;3140562;28;20028;-73
2024/01/17 06:32:56;;;;;;;14.63;13.25;;;-4.40;99.90;;;;;;3133958;28;20032;-73
2024/01/17 06:34:27;;;;;;;23.58;12.82;;;-4.40;99.90;;;;;;3140896;28;20021;-75
2024/01/17 06:35:58;;;;;;;15.27;13.70;;;-4.40;99.90;;;;;;3140722;28;20023;-73
2024/01/17 06:37:29;;;;;;;15.77;12.13;;;-4.30;99.90;;;;;;3135132;28;20341;-74
2024/01/17 06:38:59;;;;;;;14.23;12.00;;;-4.30;99.90;;;;;;3133216;28;20091;-73
2024/01/17 06:40:31;;;;;;;14.90;13.35;;;-4.30;99.90;;;;;;3129112;28;20025;-73
2024/01/17 06:42:03;;;;;;;14.20;11.75;;;-4.30;99.90;;;;;;3128508;28;20096;-74
2024/01/17 06:43:34;;;;;;;15.25;13.05;;;-4.30;99.90;;;;;;3124532;28;20028;-73
2024/01/17 06:45:05;;;;;;;23.05;14.38;;;-4.30;99.90;;;;;;3120463;28;20026;-76
2024/01/17 06:46:36;;;;;;;14.40;13.00;;;-4.30;99.90;;;;;;3112804;28;20064;-73
2024/01/17 06:48:07;;;;;;;16.15;14.48;;;-4.30;99.90;;;;;;3125787;28;20307;-75
2024/01/17 06:49:40;;;;;;;18.58;13.93;;;-4.30;99.90;;;;;;3130011;28;20048;-73
2024/01/17 06:51:10;;;;;;;14.15;12.55;;;-4.30;99.90;;;;;;3129315;28;20021;-73
2024/01/17 06:52:41;;;;;;;14.40;12.45;;;-4.30;99.90;;;;;;3116444;28;20219;-74
2024/01/17 06:54:12;;;;;;;17.67;10.23;;;-4.30;99.90;;;;;;3121621;28;20030;-74
2024/01/17 06:55:43;;;;;;;14.85;12.25;;;-4.20;99.90;;;;;;3114311;28;20072;-74
2024/01/17 06:57:14;;;;;;;13.73;12.10;;;-4.20;99.90;;;;;;3121044;28;20330;-74
2024/01/17 06:58:44;;;;;;;13.27;12.18;;;-4.20;99.90;;;;;;3125040;28;20037;-74
2024/01/17 07:00:15;;;;;;;18.05;13.60;;;-4.20;99.90;;;;;;3134466;28;20423;-74
2024/01/17 07:01:46;;;;;;;13.35;12.18;;;-4.20;99.90;;;;;;3141947;28;20211;-74
2024/01/17 07:03:17;;;;;;;14.07;12.52;;;-4.20;99.90;;;;;;3152418;28;20039;-73
2024/01/17 07:04:48;;;;;;;12.48;11.30;;;-4.10;99.90;;;;;;3134152;28;20017;-73
2024/01/17 07:06:19;;;;;;;17.48;13.57;;;-4.10;99.90;;;;;;3129634;28;20304;-73
2024/01/17 07:07:49;;;;;;;14.40;13.05;;;-4.10;99.90;;;;;;3153814;28;20345;-74
2024/01/17 07:09:20;;;;;;;13.48;12.18;;;-4.10;99.90;;;;;;3137422;28;20049;-73
2024/01/17 07:10:51;;;;;;;12.85;11.35;;;-4.10;99.90;;;;;;3137228;28;20047;-73
2024/01/17 07:12:21;;;;;;;12.50;11.27;;;-4.00;99.90;;;;;;3129888;28;20029;-75
2024/01/17 07:13:53;;;;;;;15.70;12.20;;;-4.10;99.90;;;;;;3132322;28;20413;-73
2024/01/17 07:15:24;;;;;;;14.23;12.73;;;-4.00;99.90;;;;;;3127550;28;20385;-75
2024/01/17 07:16:55;;;;;;;11.73;10.63;;;-4.00;99.90;;;;;;3128670;28;20037;-74
2024/01/17 07:18:25;;;;;;;13.23;11.88;;;-4.00;99.90;;;;;;3129371;28;20056;-73
2024/01/17 07:19:57;;;;;;;14.55;12.38;;;-3.70;99.90;;;;;;3104331;28;20101;-73
2024/01/17 07:21:27;;;;;;;11.43;10.27;;;-2.90;99.90;;;;;;3120971;28;20049;-72
2024/01/17 07:22:58;;;;;;;19.23;11.90;;;-4.00;99.90;;;;;;3126742;28;20068;-73
2024/01/17 07:24:29;;;;;;;11.45;10.38;;;-4.00;99.90;;;;;;3112332;28;20026;-73
2024/01/17 07:26:00;;;;;;;16.20;13.35;;;-4.00;99.90;;;;;;3116180;28;20029;-73
2024/01/17 07:27:31;;;;;;;15.15;13.85;;;-3.90;99.90;;;;;;3115827;28;20030;-74
2024/01/17 07:29:01;;;;;;;17.35;13.23;;;-4.00;99.90;;;;;;3128194;28;20049;-75
2024/01/17 07:30:34;;;;;;;12.93;11.52;;;-3.90;99.90;;;;;;3091761;28;20046;-74
2024/01/17 07:32:05;;;;;;;14.88;12.43;;;-3.90;99.90;;;;;;3137033;28;20040;-76
2024/01/17 07:33:36;;;;;;;16.17;13.65;;;-4.00;99.90;;;;;;3107890;28;20034;-76
2024/01/17 07:35:07;;;;;;;13.75;12.27;;;-3.90;99.90;;;;;;3121017;28;20091;-78
2024/01/17 07:36:38;;;;;;;14.23;12.55;;;-3.90;99.90;;;;;;3115927;28;20022;-75
2024/01/17 07:38:09;;;;;;;18.30;13.15;;;-3.90;99.90;;;;;;3120200;28;20055;-76
2024/01/17 07:39:39;;;;;;;16.83;13.45;;;-3.90;99.90;;;;;;3128835;28;20033;-77
2024/01/17 07:41:10;;;;;;;15.63;12.55;;;-3.80;99.90;;;;;;3140979;28;20048;-77
2024/01/17 07:42:41;;;;;;;12.85;11.70;;;-3.90;99.90;;;;;;3114139;28;20061;-77